Time;durP1;ratioP1;P1;durP2;ratioP2;P2;SDS_P1;SDS_P2;PMS_P1;PMS_P2;Temp;Humidity;BMP_temperature;BMP_pressure;BME280_temperature;BME280_humidity;BME280_pressure;Samples;Min_cycle;Max_cycle;Signal;HPM_P1;HPM_P2
2022/12/19 00:00:46;;;;;;;39.88;11.57;;;;;;;;;;6207257;23;20100;-60
2022/12/19 00:03:20;;;;;;;32.50;12.38;;;;;;;;;;6206817;23;20496;-46
2022/12/19 00:05:54;;;;;;;30.75;11.98;;;;;;;;;;6206121;23;20044;-52
2022/12/19 00:08:22;;;;;;;46.33;12.90;;;;;;;;;;6207443;23;20414;-49
2022/12/19 00:10:56;;;;;;;31.13;11.23;;;;;;;;;;6207358;23;20023;-53
2022/12/19 00:13:31;;;;;;;32.58;11.70;;;;;;;;;;6207559;23;20191;-52
2022/12/19 00:16:17;;;;;;;30.13;11.50;;;;;;;;;;6206550;23;20024;-49
2022/12/19 00:18:51;;;;;;;36.90;11.65;;;;;;;;;;6207907;23;20067;-57
2022/12/19 00:21:22;;;;;;;32.35;11.10;;;;;;;;;;6206103;23;20070;-63
2022/12/19 00:23:49;;;;;;;31.55;11.70;;;;;;;;;;6207792;23;20059;-62
2022/12/19 00:26:24;;;;;;;35.95;11.43;;;;;;;;;;6207959;23;20104;-62
2022/12/19 00:28:53;;;;;;;31.80;11.00;;;;;;;;;;6206380;23;20060;-62
2022/12/19 00:31:29;;;;;;;34.53;11.40;;;;;;;;;;6206945;23;20488;-64
2022/12/19 00:33:56;;;;;;;34.53;10.57;;;;;;;;;;6207825;23;20035;-62
2022/12/19 00:36:25;;;;;;;39.88;11.20;;;;;;;;;;6207448;23;20099;-62
2022/12/19 00:39:00;;;;;;;22.70;10.23;;;;;;;;;;6206189;23;20107;-60
2022/12/19 00:41:34;;;;;;;34.88;12.10;;;;;;;;;;6207629;23;20405;-62
2022/12/19 00:44:16;;;;;;;40.33;11.45;;;;;;;;;;6207567;23;20122;-61
2022/12/19 00:46:43;;;;;;;31.58;11.00;;;;;;;;;;6207774;23;20470;-62
2022/12/19 00:49:19;;;;;;;23.77;9.50;;;;;;;;;;6208236;23;20138;-62
2022/12/19 00:51:46;;;;;;;25.73;11.23;;;;;;;;;;6208786;23;20071;-62
2022/12/19 00:54:20;;;;;;;24.70;9.88;;;;;;;;;;6208354;23;20764;-63
2022/12/19 00:56:47;;;;;;;27.67;9.93;;;;;;;;;;6208090;23;20029;-60
2022/12/19 00:59:28;;;;;;;33.10;10.65;;;;;;;;;;6207757;23;20476;-46
2022/12/19 01:01:55;;;;;;;24.48;10.05;;;;;;;;;;6205416;23;20031;-45
2022/12/19 01:04:29;;;;;;;22.58;9.63;;;;;;;;;;6207465;23;20025;-49
2022/12/19 01:07:04;;;;;;;28.75;9.48;;;;;;;;;;6207797;23;20112;-46
2022/12/19 01:09:38;;;;;;;25.23;8.93;;;;;;;;;;6206400;23;20100;-48
2022/12/19 01:14:59;;;;;;;22.15;8.50;;;;;;;;;;6207793;23;20044;-60
2022/12/19 01:17:33;;;;;;;21.23;8.32;;;;;;;;;;6207696;23;20086;-60
2022/12/19 01:20:11;;;;;;;17.13;8.25;;;;;;;;;;6207067;23;20031;-60
2022/12/19 01:22:38;;;;;;;;;;;;;;;;;;6206226;23;20024;-60
2022/12/19 01:25:05;;;;;;;29.90;8.77;;;;;;;;;;6207521;23;19962;-61
2022/12/19 01:27:39;;;;;;;17.65;7.50;;;;;;;;;;6206093;23;20100;-60
2022/12/19 01:30:07;;;;;;;17.83;7.38;;;;;;;;;;6206778;23;20111;-61
2022/12/19 01:32:34;;;;;;;;;;;;;;;;;;6208227;23;20466;-46
2022/12/19 01:35:08;;;;;;;20.38;8.20;;;;;;;;;;6207720;23;19926;-47
2022/12/19 01:37:47;;;;;;;16.45;8.13;;;;;;;;;;6206892;23;20496;-46
2022/12/19 01:40:34;;;;;;;21.02;7.97;;;;;;;;;;6207318;23;20055;-49
2022/12/19 01:43:01;;;;;;;19.52;6.90;;;;;;;;;;6205882;23;20039;-47
2022/12/19 01:45:36;;;;;;;15.57;6.78;;;;;;;;;;6207179;23;20025;-47
2022/12/19 01:48:16;;;;;;;24.80;8.43;;;;;;;;;;6207530;23;20486;-47
2022/12/19 01:51:01;;;;;;;17.42;6.32;;;;;;;;;;6208919;23;20103;-51
2022/12/19 01:53:31;;;;;;;18.17;6.88;;;;;;;;;;6206950;23;20020;-60
2022/12/19 01:56:16;;;;;;;20.75;6.63;;;;;;;;;;6208661;23;20473;-60
2022/12/19 01:58:51;;;;;;;21.80;6.10;;;;;;;;;;6208065;23;20016;-60
2022/12/19 02:01:33;;;;;;;13.85;6.40;;;;;;;;;;6208066;23;20489;-60
2022/12/19 02:04:01;;;;;;;19.13;6.10;;;;;;;;;;6208626;23;20478;-60
2022/12/19 02:06:35;;;;;;;11.93;5.88;;;;;;;;;;6208149;23;20020;-59
2022/12/19 02:09:02;;;;;;;16.13;5.88;;;;;;;;;;6207527;23;20466;-60
2022/12/19 02:11:33;;;;;;;13.85;6.03;;;;;;;;;;6208635;23;20020;-60
2022/12/19 02:14:07;;;;;;;11.33;5.13;;;;;;;;;;6209077;23;20060;-62
2022/12/19 02:16:37;;;;;;;15.90;5.63;;;;;;;;;;6210104;23;20248;-62
2022/12/19 02:19:17;;;;;;;14.95;4.05;;;;;;;;;;6208420;23;20096;-61
2022/12/19 02:21:44;;;;;;;14.05;5.35;;;;;;;;;;6208703;23;20096;-62
2022/12/19 02:24:32;;;;;;;13.18;5.53;;;;;;;;;;6209971;23;20103;-62
2022/12/19 02:27:10;;;;;;;11.30;5.43;;;;;;;;;;6183064;23;20466;-62
2022/12/19 02:29:59;;;;;;;16.80;5.90;;;;;;;;;;6209237;23;20028;-60
2022/12/19 02:32:26;;;;;;;11.02;4.82;;;;;;;;;;6208672;23;20112;-50
2022/12/19 02:35:07;;;;;;;10.77;5.38;;;;;;;;;;6209599;23;20079;-47
2022/12/19 02:37:48;;;;;;;9.25;4.60;;;;;;;;;;6208796;23;20032;-47
2022/12/19 02:40:27;;;;;;;14.38;5.70;;;;;;;;;;6208126;23;20028;-48
2022/12/19 02:43:03;;;;;;;9.77;4.50;;;;;;;;;;6208193;23;20476;-48
2022/12/19 02:45:34;;;;;;;11.10;4.88;;;;;;;;;;6208397;23;20047;-62
2022/12/19 02:48:09;;;;;;;11.82;4.60;;;;;;;;;;6207321;23;20030;-61
2022/12/19 02:50:45;;;;;;;9.60;3.97;;;;;;;;;;6207424;23;20024;-61
2022/12/19 02:53:19;;;;;;;11.70;4.65;;;;;;;;;;6206847;23;20060;-60
2022/12/19 02:56:11;;;;;;;14.18;4.82;;;;;;;;;;6207966;23;20536;-61
2022/12/19 02:59:16;;;;;;;11.43;4.43;;;;;;;;;;6207236;23;20027;-61
2022/12/19 03:02:04;;;;;;;11.05;4.85;;;;;;;;;;6206962;23;20108;-61
2022/12/19 03:04:47;;;;;;;12.95;4.95;;;;;;;;;;6208129;23;20051;-51
2022/12/19 03:07:18;;;;;;;10.95;4.80;;;;;;;;;;6208737;23;20112;-63
2022/12/19 03:10:10;;;;;;;11.38;4.78;;;;;;;;;;6206915;23;20434;-63
2022/12/19 03:12:41;;;;;;;8.93;4.40;;;;;;;;;;6208090;23;20027;-63
2022/12/19 03:15:15;;;;;;;9.20;4.47;;;;;;;;;;6208579;23;20024;-63
2022/12/19 03:17:42;;;;;;;;;;;;;;;;;;6208831;23;20275;-63
2022/12/19 03:20:21;;;;;;;7.25;3.65;;;;;;;;;;6206728;23;20242;-62
2022/12/19 03:22:49;;;;;;;10.48;4.40;;;;;;;;;;6208235;23;20024;-62
2022/12/19 03:25:25;;;;;;;10.52;4.50;;;;;;;;;;6208639;23;20029;-48
2022/12/19 03:27:54;;;;;;;9.48;4.20;;;;;;;;;;6206431;23;20096;-47
2022/12/19 03:30:21;;;;;;;8.68;3.70;;;;;;;;;;6206471;23;20056;-48
2022/12/19 03:32:56;;;;;;;8.90;4.57;;;;;;;;;;6207059;23;20028;-47
2022/12/19 03:35:26;;;;;;;9.43;4.03;;;;;;;;;;6208269;23;20021;-49
2022/12/19 03:38:02;;;;;;;10.52;4.43;;;;;;;;;;6208360;23;20096;-48
2022/12/19 03:40:30;;;;;;;12.80;4.68;;;;;;;;;;6207620;23;20117;-46
2022/12/19 03:43:08;;;;;;;8.77;3.88;;;;;;;;;;6206811;23;20095;-61
2022/12/19 03:45:49;;;;;;;8.95;4.20;;;;;;;;;;6206196;23;20027;-61
2022/12/19 03:48:48;;;;;;;9.50;4.07;;;;;;;;;;6206538;23;20028;-61
2022/12/19 03:51:28;;;;;;;9.32;3.80;;;;;;;;;;6134562;23;20052;-61
2022/12/19 03:54:05;;;;;;;8.60;3.80;;;;;;;;;;6207027;23;20103;-61
2022/12/19 03:56:48;;;;;;;8.80;3.92;;;;;;;;;;6180824;23;20090;-61
2022/12/19 03:59:22;;;;;;;11.57;4.72;;;;;;;;;;6207850;23;20024;-48
2022/12/19 04:01:57;;;;;;;9.35;4.15;;;;;;;;;;6206672;23;20032;-61
2022/12/19 04:04:26;;;;;;;8.38;3.90;;;;;;;;;;6208899;23;20095;-47
2022/12/19 04:07:02;;;;;;;9.07;3.92;;;;;;;;;;6207658;23;20473;-50
2022/12/19 04:09:30;;;;;;;9.05;3.72;;;;;;;;;;6209213;23;20048;-52
2022/12/19 04:11:59;;;;;;;11.57;4.25;;;;;;;;;;6208768;23;20059;-55
2022/12/19 04:14:35;;;;;;;8.82;4.40;;;;;;;;;;6207474;23;20038;-48
2022/12/19 04:17:21;;;;;;;10.57;4.20;;;;;;;;;;6207760;23;20079;-49
2022/12/19 04:20:03;;;;;;;7.03;4.13;;;;;;;;;;6208179;23;20017;-57
2022/12/19 04:22:49;;;;;;;10.70;4.20;;;;;;;;;;6208391;23;20536;-62
2022/12/19 04:25:45;;;;;;;7.07;3.45;;;;;;;;;;6208070;23;20096;-63
2022/12/19 04:28:22;;;;;;;8.15;3.80;;;;;;;;;;6209301;23;20024;-62
2022/12/19 04:30:56;;;;;;;7.25;4.07;;;;;;;;;;6207830;23;20104;-63
2022/12/19 04:33:23;;;;;;;9.85;4.65;;;;;;;;;;6207290;23;20024;-62
2022/12/19 04:35:50;;;;;;;12.10;4.53;;;;;;;;;;6207107;23;20095;-61
2022/12/19 04:38:24;;;;;;;11.13;4.03;;;;;;;;;;6208208;23;20075;-61
2022/12/19 04:40:58;;;;;;;8.88;3.80;;;;;;;;;;6207872;23;20026;-61
2022/12/19 04:43:32;;;;;;;7.95;4.00;;;;;;;;;;6206439;23;20324;-61
2022/12/19 04:46:06;;;;;;;6.70;4.10;;;;;;;;;;6207210;23;20103;-61
2022/12/19 04:48:34;;;;;;;9.82;4.57;;;;;;;;;;6207836;23;20029;-61
2022/12/19 04:51:02;;;;;;;7.55;3.83;;;;;;;;;;6182706;23;20028;-61
2022/12/19 04:53:36;;;;;;;10.48;4.78;;;;;;;;;;6208557;23;20020;-61
2022/12/19 04:56:04;;;;;;;8.82;4.82;;;;;;;;;;6207038;23;20021;-61
2022/12/19 04:58:52;;;;;;;11.07;4.43;;;;;;;;;;6207311;23;20027;-61
2022/12/19 05:01:25;;;;;;;11.38;4.60;;;;;;;;;;6207602;23;20060;-61
2022/12/19 05:03:59;;;;;;;8.80;4.47;;;;;;;;;;6207645;23;20540;-61
2022/12/19 05:06:33;;;;;;;10.20;4.75;;;;;;;;;;6209207;23;20021;-61
2022/12/19 05:09:00;;;;;;;9.90;4.47;;;;;;;;;;6202781;23;20975;-61
2022/12/19 05:11:34;;;;;;;10.32;4.90;;;;;;;;;;6206100;23;20104;-61
2022/12/19 05:14:01;;;;;;;10.15;4.63;;;;;;;;;;6206169;23;20067;-61
2022/12/19 05:16:35;;;;;;;12.23;4.55;;;;;;;;;;6207441;23;20100;-46
2022/12/19 05:19:02;;;;;;;;;;;;;;;;;;6207988;23;20409;-49
2022/12/19 05:21:36;;;;;;;8.50;4.13;;;;;;;;;;6207600;23;19966;-50
2022/12/19 05:24:03;;;;;;;11.75;5.03;;;;;;;;;;6207734;23;20466;-47
2022/12/19 05:26:31;;;;;;;10.20;5.35;;;;;;;;;;6208199;23;20051;-53
2022/12/19 05:29:05;;;;;;;9.88;5.03;;;;;;;;;;6208415;23;20023;-47
2022/12/19 05:31:32;;;;;;;14.93;5.38;;;;;;;;;;6208458;23;20561;-46
2022/12/19 05:34:06;;;;;;;12.20;5.88;;;;;;;;;;6209288;23;20605;-61
2022/12/19 05:36:33;;;;;;;13.52;5.75;;;;;;;;;;6209046;23;20025;-60
2022/12/19 05:39:00;;;;;;;13.65;5.72;;;;;;;;;;6206607;23;20064;-60
2022/12/19 05:41:34;;;;;;;10.90;5.65;;;;;;;;;;6208696;23;20161;-60
2022/12/19 05:44:01;;;;;;;16.30;6.03;;;;;;;;;;6209563;23;20104;-60
2022/12/19 05:46:35;;;;;;;14.35;6.38;;;;;;;;;;6206625;23;20024;-61
2022/12/19 05:49:02;;;;;;;12.43;5.63;;;;;;;;;;6205835;23;20021;-58
2022/12/19 05:51:30;;;;;;;12.27;5.65;;;;;;;;;;6208613;23;20033;-52
2022/12/19 05:54:04;;;;;;;14.60;6.22;;;;;;;;;;6208519;23;20104;-62
2022/12/19 05:56:38;;;;;;;17.35;6.45;;;;;;;;;;6209073;23;20020;-61
2022/12/19 05:59:12;;;;;;;19.25;7.80;;;;;;;;;;6208316;23;20593;-61
2022/12/19 06:01:53;;;;;;;14.80;7.05;;;;;;;;;;6208787;23;20093;-61
2022/12/19 06:04:20;;;;;;;16.20;7.38;;;;;;;;;;6208723;23;20031;-61
2022/12/19 06:06:54;;;;;;;15.35;6.47;;;;;;;;;;6184849;23;20032;-61
2022/12/19 06:09:21;;;;;;;13.95;7.30;;;;;;;;;;6209841;23;20048;-62
2022/12/19 06:11:50;;;;;;;16.95;6.82;;;;;;;;;;6209231;23;20021;-55
2022/12/19 06:14:24;;;;;;;16.30;7.60;;;;;;;;;;6211352;23;20021;-56
2022/12/19 06:16:51;;;;;;;16.67;7.45;;;;;;;;;;6209072;23;20092;-55
2022/12/19 06:19:25;;;;;;;16.48;7.53;;;;;;;;;;6209422;23;20024;-54
2022/12/19 06:21:52;;;;;;;16.80;7.25;;;;;;;;;;6210364;23;20039;-55
2022/12/19 06:24:26;;;;;;;17.52;8.18;;;;;;;;;;6209766;23;20070;-56
2022/12/19 06:26:53;;;;;;;16.27;8.07;;;;;;;;;;6209875;23;20472;-59
2022/12/19 06:29:20;;;;;;;19.65;8.05;;;;;;;;;;6211168;23;20031;-60
2022/12/19 06:31:54;;;;;;;20.05;8.48;;;;;;;;;;6208659;23;20059;-61
2022/12/19 06:34:22;;;;;;;18.90;8.10;;;;;;;;;;6182690;23;20352;-61
2022/12/19 06:37:16;;;;;;;19.08;9.48;;;;;;;;;;6209322;23;20035;-60
2022/12/19 06:39:43;;;;;;;21.88;9.05;;;;;;;;;;6210124;23;20025;-61
2022/12/19 06:42:23;;;;;;;19.98;8.23;;;;;;;;;;6209732;23;20123;-60
2022/12/19 06:44:51;;;;;;;24.10;8.93;;;;;;;;;;6209900;23;20501;-50
2022/12/19 06:47:25;;;;;;;21.48;8.43;;;;;;;;;;6210393;23;20099;-48
2022/12/19 06:49:53;;;;;;;20.90;9.43;;;;;;;;;;6209384;23;20308;-49
2022/12/19 06:52:20;;;;;;;;;;;;;;;;;;6209253;23;20024;-48
2022/12/19 06:54:53;;;;;;;24.80;9.15;;;;;;;;;;6208767;23;19939;-54
2022/12/19 06:57:20;;;;;;;26.75;10.40;;;;;;;;;;6209046;23;20535;-49
2022/12/19 07:00:01;;;;;;;19.10;8.93;;;;;;;;;;6208551;23;20032;-48
2022/12/19 07:02:30;;;;;;;22.27;9.57;;;;;;;;;;6209570;23;20075;-49
2022/12/19 07:05:06;;;;;;;22.23;9.52;;;;;;;;;;6208521;23;20021;-49
2022/12/19 07:07:33;;;;;;;23.23;10.30;;;;;;;;;;6207197;23;20056;-60
2022/12/19 07:10:00;;;;;;;23.50;9.77;;;;;;;;;;6208626;23;20064;-60
2022/12/19 07:12:34;;;;;;;22.30;10.73;;;;;;;;;;6209029;23;20062;-60
2022/12/19 07:15:01;;;;;;;25.00;10.88;;;;;;;;;;6206545;23;20025;-60
2022/12/19 07:17:42;;;;;;;27.65;11.05;;;;;;;;;;6209030;23;20017;-60
2022/12/19 07:20:16;;;;;;;27.63;10.32;;;;;;;;;;6207922;23;20496;-59
2022/12/19 07:22:51;;;;;;;30.02;12.40;;;;;;;;;;6207173;23;20489;-49
2022/12/19 07:25:18;;;;;;;28.08;11.85;;;;;;;;;;6209164;23;20078;-48
2022/12/19 07:27:46;;;;;;;25.67;11.57;;;;;;;;;;6207510;23;20063;-47
2022/12/19 07:30:21;;;;;;;28.63;11.60;;;;;;;;;;6207312;23;20030;-49
2022/12/19 07:32:48;;;;;;;26.30;11.73;;;;;;;;;;6208003;23;20032;-51
2022/12/19 07:35:23;;;;;;;29.52;12.00;;;;;;;;;;6209033;23;20082;-46
2022/12/19 07:37:50;;;;;;;28.45;11.85;;;;;;;;;;6208207;23;20024;-48
2022/12/19 07:40:17;;;;;;;26.63;11.98;;;;;;;;;;6208300;23;20096;-60
2022/12/19 07:42:51;;;;;;;33.15;12.88;;;;;;;;;;6183689;23;20086;-59
2022/12/19 07:45:18;;;;;;;34.10;12.93;;;;;;;;;;6208051;23;20029;-60
2022/12/19 07:47:52;;;;;;;33.80;13.73;;;;;;;;;;6207664;23;20020;-57
2022/12/19 07:50:19;;;;;;;34.55;13.10;;;;;;;;;;6209004;23;20536;-60
2022/12/19 07:52:46;;;;;;;34.17;13.80;;;;;;;;;;6207207;23;20016;-60
2022/12/19 07:55:20;;;;;;;36.75;14.55;;;;;;;;;;6208491;23;20104;-58
2022/12/19 07:57:47;;;;;;;37.28;14.90;;;;;;;;;;6207297;23;20024;-50
2022/12/19 08:00:34;;;;;;;33.85;14.23;;;;;;;;;;6207732;23;20060;-50
2022/12/19 08:03:08;;;;;;;39.50;13.98;;;;;;;;;;6207709;23;20032;-47
2022/12/19 08:05:42;;;;;;;33.35;13.65;;;;;;;;;;6209453;23;20056;-45
2022/12/19 08:08:16;;;;;;;40.08;13.88;;;;;;;;;;6207721;23;20071;-46
2022/12/19 08:10:43;;;;;;;40.85;16.20;;;;;;;;;;6208966;23;20500;-45
2022/12/19 08:13:10;;;;;;;34.38;13.70;;;;;;;;;;6207588;23;20020;-45
2022/12/19 08:15:44;;;;;;;47.63;16.45;;;;;;;;;;6207461;23;20559;-52
2022/12/19 08:18:12;;;;;;;40.10;16.35;;;;;;;;;;6206735;23;20035;-61
2022/12/19 08:20:45;;;;;;;38.40;14.93;;;;;;;;;;6208326;23;20095;-61
2022/12/19 08:23:13;;;;;;;41.70;15.85;;;;;;;;;;6207101;23;20024;-61
2022/12/19 08:25:40;;;;;;;45.33;16.33;;;;;;;;;;6209502;23;20029;-61
2022/12/19 08:28:14;;;;;;;37.58;16.05;;;;;;;;;;6207873;23;20542;-61
2022/12/19 08:30:41;;;;;;;36.80;14.93;;;;;;;;;;6207307;23;20419;-61
2022/12/19 08:33:08;;;;;;;47.10;16.77;;;;;;;;;;6208370;23;20024;-61
2022/12/19 08:35:42;;;;;;;48.92;17.58;;;;;;;;;;6208470;23;20021;-61
2022/12/19 08:38:09;;;;;;;36.75;13.40;;;;;;;;;;6208066;23;20096;-60
2022/12/19 08:40:43;;;;;;;39.22;15.75;;;;;;;;;;6208636;23;20052;-60
2022/12/19 08:43:13;;;;;;;48.67;18.27;;;;;;;;;;6209204;23;20074;-59
2022/12/19 08:45:48;;;;;;;42.42;15.35;;;;;;;;;;6208996;23;20029;-59
2022/12/19 08:48:16;;;;;;;45.20;16.73;;;;;;;;;;6208442;23;20024;-59
2022/12/19 08:50:50;;;;;;;52.78;19.25;;;;;;;;;;6209155;23;20024;-60
2022/12/19 08:53:25;;;;;;;42.05;17.20;;;;;;;;;;6208664;23;20536;-47
2022/12/19 08:56:16;;;;;;;45.28;18.00;;;;;;;;;;6183200;23;20100;-62
2022/12/19 08:59:03;;;;;;;47.33;18.77;;;;;;;;;;6200937;23;20532;-61
2022/12/19 09:01:39;;;;;;;45.80;18.55;;;;;;;;;;6210535;23;20030;-61
2022/12/19 09:04:13;;;;;;;44.05;17.38;;;;;;;;;;6210259;23;20039;-60
2022/12/19 09:07:01;;;;;;;50.53;18.77;;;;;;;;;;6208451;23;20397;-61
2022/12/19 09:09:34;;;;;;;49.03;18.63;;;;;;;;;;6210489;23;20048;-61
2022/12/19 09:12:02;;;;;;;52.70;18.73;;;;;;;;;;6211090;23;20021;-60
2022/12/19 09:14:32;;;;;;;50.70;19.20;;;;;;;;;;6208919;23;20052;-46
2022/12/19 09:17:06;;;;;;;46.42;19.02;;;;;;;;;;6210059;23;20253;-61
2022/12/19 09:19:33;;;;;;;43.78;18.08;;;;;;;;;;6210320;23;20021;-61
2022/12/19 09:22:14;;;;;;;43.80;18.83;;;;;;;;;;6208789;23;20067;-61
2022/12/19 09:24:41;;;;;;;43.67;18.23;;;;;;;;;;6208925;23;20020;-61
2022/12/19 09:27:15;;;;;;;50.75;19.05;;;;;;;;;;6210465;23;20422;-61
2022/12/19 09:29:43;;;;;;;48.80;18.52;;;;;;;;;;6208959;23;20048;-61
2022/12/19 09:32:10;;;;;;;52.83;20.20;;;;;;;;;;6207700;23;20024;-60
2022/12/19 09:34:44;;;;;;;46.90;18.98;;;;;;;;;;6210314;23;20052;-61
2022/12/19 09:37:11;;;;;;;;;;;;;;;;;;6210107;23;20056;-61
2022/12/19 09:39:46;;;;;;;52.78;19.08;;;;;;;;;;6209103;23;19916;-61
2022/12/19 09:42:21;;;;;;;48.58;18.60;;;;;;;;;;6209982;23;20434;-61
2022/12/19 09:44:55;;;;;;;49.70;19.27;;;;;;;;;;6209038;23;20055;-61
2022/12/19 09:47:23;;;;;;;50.58;18.90;;;;;;;;;;6210785;23;20094;-61
2022/12/19 09:49:52;;;;;;;49.88;19.17;;;;;;;;;;6210124;23;20062;-50
2022/12/19 09:52:29;;;;;;;57.00;21.08;;;;;;;;;;6211185;23;20107;-60
2022/12/19 09:55:22;;;;;;;51.65;20.23;;;;;;;;;;6210766;23;20028;-60
2022/12/19 09:58:14;;;;;;;51.22;18.50;;;;;;;;;;6200359;23;20096;-59
2022/12/19 10:00:59;;;;;;;47.33;19.10;;;;;;;;;;6208888;23;20079;-60
2022/12/19 10:03:38;;;;;;;49.63;19.33;;;;;;;;;;6208880;23;20025;-60
2022/12/19 10:06:17;;;;;;;44.42;18.08;;;;;;;;;;6210211;23;20099;-59
2022/12/19 10:09:10;;;;;;;52.55;19.17;;;;;;;;;;6210190;23;20027;-56
2022/12/19 10:12:04;;;;;;;;;;;;;;;;;;6210252;23;20389;-49
2022/12/19 10:14:54;;;;;;;49.58;18.52;;;;;;;;;;6209734;23;19926;-46
2022/12/19 10:17:43;;;;;;;57.85;20.40;;;;;;;;;;6210280;23;20571;-46
2022/12/19 10:20:17;;;;;;;47.80;18.75;;;;;;;;;;6210033;23;20099;-45
2022/12/19 10:22:59;;;;;;;56.08;20.90;;;;;;;;;;6210208;23;20032;-46
2022/12/19 10:25:29;;;;;;;55.40;19.13;;;;;;;;;;6210276;23;20020;-62
2022/12/19 10:28:06;;;;;;;51.15;19.70;;;;;;;;;;6209662;23;20372;-51
2022/12/19 10:30:37;;;;;;;52.35;20.15;;;;;;;;;;6210734;23;20032;-60
2022/12/19 10:33:40;;;;;;;54.78;21.38;;;;;;;;;;6209851;23;20027;-61
2022/12/19 10:36:09;;;;;;;55.42;19.90;;;;;;;;;;6183617;23;20108;-61
2022/12/19 10:38:51;;;;;;;50.50;19.48;;;;;;;;;;6210298;23;20079;-61
2022/12/19 10:41:26;;;;;;;50.63;20.40;;;;;;;;;;6211131;23;20527;-61
2022/12/19 10:44:10;;;;;;;51.70;20.13;;;;;;;;;;6209728;23;20111;-61
2022/12/19 10:46:37;;;;;;;54.50;19.55;;;;;;;;;;6210864;23;20028;-63
2022/12/19 10:49:15;;;;;;;51.70;20.05;;;;;;;;;;6209438;23;20017;-62
2022/12/19 10:51:56;;;;;;;54.47;20.42;;;;;;;;;;6210107;23;20021;-62
2022/12/19 10:54:36;;;;;;;48.75;20.38;;;;;;;;;;6209356;23;20025;-63
2022/12/19 10:57:21;;;;;;;54.72;19.55;;;;;;;;;;6209647;23;20025;-63
2022/12/19 11:00:06;;;;;;;46.88;19.98;;;;;;;;;;6209531;23;20075;-63
2022/12/19 11:02:33;;;;;;;;;;;;;;;;;;6209623;23;20039;-62
2022/12/19 11:05:22;;;;;;;45.92;18.70;;;;;;;;;;6208410;23;20337;-46
2022/12/19 11:07:58;;;;;;;60.10;19.15;;;;;;;;;;6208996;23;20087;-48
2022/12/19 11:10:38;;;;;;;55.53;19.98;;;;;;;;;;6210680;23;20042;-50
2022/12/19 11:13:26;;;;;;;51.45;21.30;;;;;;;;;;6209294;23;20108;-52
2022/12/19 11:16:33;;;;;;;47.22;19.15;;;;;;;;;;6209099;23;20357;-49
2022/12/19 11:19:28;;;;;;;47.92;18.45;;;;;;;;;;6209110;23;20028;-52
2022/12/19 11:22:24;;;;;;;44.90;17.15;;;;;;;;;;6210014;23;20021;-54
2022/12/19 11:25:15;;;;;;;52.03;20.50;;;;;;;;;;6208922;23;20020;-62
2022/12/19 11:28:16;;;;;;;56.35;20.40;;;;;;;;;;6208201;23;20024;-61
2022/12/19 11:31:05;;;;;;;62.85;21.55;;;;;;;;;;6208048;23;20024;-61
2022/12/19 11:34:04;;;;;;;55.60;18.58;;;;;;;;;;6188487;23;20028;-62
2022/12/19 11:36:32;;;;;;;58.33;20.75;;;;;;;;;;6210222;23;20095;-61
2022/12/19 11:39:08;;;;;;;58.78;21.92;;;;;;;;;;6207866;23;20103;-60
2022/12/19 11:41:46;;;;;;;58.65;21.67;;;;;;;;;;6207525;23;20020;-55
2022/12/19 11:44:24;;;;;;;56.92;22.10;;;;;;;;;;6208799;23;20060;-61
2022/12/19 11:46:58;;;;;;;53.45;19.48;;;;;;;;;;6208847;23;20028;-61
2022/12/19 11:49:41;;;;;;;54.25;19.17;;;;;;;;;;6207240;23;20048;-60
2022/12/19 11:52:22;;;;;;;53.35;19.63;;;;;;;;;;6208080;23;20488;-60
2022/12/19 11:55:27;;;;;;;59.65;21.65;;;;;;;;;;6208433;23;20029;-60
2022/12/19 11:57:54;;;;;;;57.28;21.25;;;;;;;;;;6208588;23;20051;-60
2022/12/19 12:00:36;;;;;;;68.68;23.25;;;;;;;;;;6207719;23;20035;-60
2022/12/19 12:03:03;;;;;;;53.22;21.88;;;;;;;;;;6207740;23;20374;-60
2022/12/19 12:05:44;;;;;;;58.35;21.15;;;;;;;;;;6208754;23;20020;-61
2022/12/19 12:08:27;;;;;;;58.08;20.73;;;;;;;;;;6208406;23;20027;-62
2022/12/19 12:11:25;;;;;;;54.42;20.42;;;;;;;;;;6207242;23;20024;-61
2022/12/19 12:14:24;;;;;;;55.83;20.95;;;;;;;;;;6208865;23;20035;-60
2022/12/19 12:17:26;;;;;;;56.33;20.40;;;;;;;;;;6208679;23;20017;-62
2022/12/19 12:20:32;;;;;;;57.30;21.90;;;;;;;;;;6207226;23;20032;-61
2022/12/19 12:23:31;;;;;;;59.45;18.58;;;;;;;;;;6207747;23;20111;-60
2022/12/19 12:26:26;;;;;;;56.72;18.67;;;;;;;;;;6207405;23;20025;-60
2022/12/19 12:29:23;;;;;;;48.17;19.05;;;;;;;;;;6207601;23;20024;-60
2022/12/19 12:32:32;;;;;;;55.28;20.35;;;;;;;;;;6207907;23;20032;-61
2022/12/19 12:35:35;;;;;;;58.83;18.65;;;;;;;;;;6207999;23;20020;-60
2022/12/19 12:38:22;;;;;;;50.03;17.52;;;;;;;;;;6206162;23;20025;-62
2022/12/19 12:41:00;;;;;;;46.90;15.23;;;;;;;;;;6207816;23;20021;-62
2022/12/19 12:43:27;;;;;;;52.65;19.08;;;;;;;;;;6207929;23;20096;-62
2022/12/19 12:45:55;;;;;;;57.25;21.20;;;;;;;;;;6207877;23;20107;-62
2022/12/19 12:48:31;;;;;;;56.03;21.58;;;;;;;;;;6206128;23;20036;-62
2022/12/19 12:50:59;;;;;;;62.42;23.75;;;;;;;;;;6208022;23;20021;-62
2022/12/19 12:53:42;;;;;;;45.40;17.73;;;;;;;;;;6208114;23;20099;-62
2022/12/19 12:56:11;;;;;;;59.40;21.85;;;;;;;;;;6181547;23;20060;-46
2022/12/19 12:58:50;;;;;;;56.95;21.00;;;;;;;;;;6207679;23;20027;-47
2022/12/19 13:01:39;;;;;;;59.80;22.00;;;;;;;;;;6207298;23;20205;-48
2022/12/19 13:04:13;;;;;;;125.00;49.53;;;;;;;;;;6207621;23;20395;-46
2022/12/19 13:06:50;;;;;;;64.60;24.88;;;;;;;;;;6207467;23;20029;-51
2022/12/19 13:09:27;;;;;;;57.95;20.60;;;;;;;;;;6208369;23;20067;-48
2022/12/19 13:15:14;;;;;;;59.13;20.83;;;;;;;;;;6207626;23;20059;-47
2022/12/19 13:17:41;;;;;;;59.20;22.40;;;;;;;;;;6207890;23;20035;-46
2022/12/19 13:20:18;;;;;;;64.68;25.17;;;;;;;;;;6207963;23;20021;-53
2022/12/19 13:22:58;;;;;;;68.03;23.48;;;;;;;;;;6207719;23;20099;-49
2022/12/19 13:25:35;;;;;;;37.80;15.55;;;;;;;;;;6208324;23;20025;-50
2022/12/19 13:28:02;;;;;;;62.30;24.33;;;;;;;;;;6207365;23;20039;-49
2022/12/19 13:30:56;;;;;;;62.60;23.25;;;;;;;;;;6208395;23;20108;-56
2022/12/19 13:33:46;;;;;;;56.42;21.60;;;;;;;;;;6206439;23;20110;-60
2022/12/19 13:36:41;;;;;;;55.53;21.38;;;;;;;;;;6208104;23;20025;-61
2022/12/19 13:39:30;;;;;;;57.58;19.60;;;;;;;;;;6204985;23;20453;-60
2022/12/19 13:45:36;;;;;;;49.97;20.02;;;;;;;;;;6209775;23;20458;-60
2022/12/19 13:48:14;;;;;;;53.85;20.75;;;;;;;;;;6210000;23;20035;-51
2022/12/19 13:50:48;;;;;;;47.30;17.05;;;;;;;;;;6209487;23;20021;-56
2022/12/19 13:53:37;;;;;;;57.22;20.20;;;;;;;;;;6210237;23;20040;-57
